Time;durP1;ratioP1;P1;durP2;ratioP2;P2;SDS_P1;SDS_P2;PMS_P1;PMS_P2;Temp;Humidity;BMP_temperature;BMP_pressure;BME280_temperature;BME280_humidity;BME280_pressure;Samples;Min_cycle;Max_cycle;Signal;HPM_P1;HPM_P2
2022/09/27 00:01:27;;;;;;;6.05;2.97;;;21.20;99.90;;;;;;5032677;28;20056;-73
2022/09/27 00:03:55;;;;;;;10.02;2.75;;;21.20;99.90;;;;;;5045792;28;20048;-73
2022/09/27 00:06:29;;;;;;;3.67;1.98;;;21.20;99.90;;;;;;5038442;28;20057;-74
2022/09/27 00:08:57;;;;;;;16.67;3.42;;;21.20;99.90;;;;;;5038423;28;20084;-73
2022/09/27 00:11:29;;;;;;;7.82;2.38;;;21.20;99.90;;;;;;5046207;28;20045;-73
2022/09/27 00:13:57;;;;;;;10.02;2.30;;;21.20;99.90;;;;;;5046046;28;20060;-73
2022/09/27 00:16:27;;;;;;;9.02;1.80;;;21.20;99.90;;;;;;5012980;28;20103;-73
2022/09/27 00:19:04;;;;;;;8.48;2.38;;;21.10;99.90;;;;;;5028776;28;20042;-73
2022/09/27 00:21:32;;;;;;;7.75;3.05;;;21.10;99.90;;;;;;5039823;28;20108;-73
2022/09/27 00:24:00;;;;;;;7.43;2.80;;;21.10;99.90;;;;;;5044138;28;20037;-84
2022/09/27 00:26:28;;;;;;;14.32;3.03;;;21.00;99.90;;;;;;5045810;28;20033;-74
2022/09/27 00:28:55;;;;;;;9.63;3.60;;;21.10;99.90;;;;;;5048197;28;20055;-73
2022/09/27 00:31:28;;;;;;;7.95;1.98;;;21.00;99.90;;;;;;5045938;28;20044;-74
2022/09/27 00:33:58;;;;;;;4.07;2.20;;;21.00;99.90;;;;;;5027850;28;20053;-75
2022/09/27 00:36:27;;;;;;;11.30;2.42;;;21.10;99.90;;;;;;5007018;28;20407;-72
2022/09/27 00:38:55;;;;;;;7.75;2.63;;;21.10;99.90;;;;;;5047095;28;20487;-72
2022/09/27 00:41:32;;;;;;;7.03;2.50;;;21.10;99.90;;;;;;5048085;28;20126;-73
2022/09/27 00:44:03;;;;;;;8.52;3.08;;;21.10;99.90;;;;;;5046186;28;20052;-85
2022/09/27 00:46:42;;;;;;;5.93;2.00;;;21.10;99.90;;;;;;5037972;28;20045;-75
2022/09/27 00:49:19;;;;;;;4.25;2.67;;;21.10;99.90;;;;;;5011288;28;20044;-72
2022/09/27 00:51:53;;;;;;;6.40;2.50;;;21.20;99.90;;;;;;5016648;28;20140;-72
2022/09/27 00:54:23;;;;;;;12.85;4.43;;;21.20;99.90;;;;;;5048151;28;20440;-72
2022/09/27 00:56:51;;;;;;;8.95;2.90;;;21.20;99.90;;;;;;5031575;28;20510;-72
2022/09/27 00:59:42;;;;;;;6.70;2.03;;;21.20;99.90;;;;;;5048137;28;20084;-74
2022/09/27 01:02:09;;;;;;;5.90;2.53;;;21.10;99.90;;;;;;5049926;28;20904;-73
2022/09/27 01:04:38;;;;;;;4.82;2.28;;;21.10;99.90;;;;;;5032809;28;20048;-73
2022/09/27 01:07:06;;;;;;;6.03;2.55;;;21.10;99.90;;;;;;5015163;28;20053;-75
2022/09/27 01:09:34;;;;;;;4.60;2.88;;;21.00;99.90;;;;;;5032120;28;20100;-76
2022/09/27 01:12:19;;;;;;;7.80;2.65;;;21.10;99.90;;;;;;5031956;28;20049;-72
2022/09/27 01:15:18;;;;;;;4.67;2.10;;;21.10;99.90;;;;;;5015044;28;20333;-75
2022/09/27 01:18:09;;;;;;;6.93;2.50;;;21.20;99.90;;;;;;5047934;28;20217;-75
2022/09/27 01:20:55;;;;;;;4.65;2.15;;;21.20;99.90;;;;;;5031856;28;20658;-74
2022/09/27 01:23:35;;;;;;;4.18;2.03;;;21.10;99.90;;;;;;5032184;28;20057;-72
2022/09/27 01:26:30;;;;;;;9.45;3.50;;;21.00;99.90;;;;;;5048320;28;20033;-75
2022/09/27 01:29:43;;;;;;;9.05;3.38;;;21.00;99.90;;;;;;5048337;28;20159;-72
2022/09/27 01:32:48;;;;;;;6.55;2.45;;;21.00;99.90;;;;;;5027596;28;20057;-72
2022/09/27 01:35:19;;;;;;;4.75;2.50;;;21.00;99.90;;;;;;5036693;28;20057;-72
2022/09/27 01:38:08;;;;;;;5.40;2.38;;;21.00;99.90;;;;;;5001760;28;20046;-72
2022/09/27 01:40:44;;;;;;;9.13;3.33;;;21.10;99.90;;;;;;5000978;28;20056;-72
2022/09/27 01:44:07;;;;;;;8.55;2.00;;;21.00;99.90;;;;;;4983959;28;20078;-73
2022/09/27 01:46:47;;;;;;;8.75;2.88;;;21.10;99.90;;;;;;5031544;28;20099;-72
2022/09/27 01:49:51;;;;;;;8.77;3.13;;;21.10;99.90;;;;;;5002388;28;20095;-71
2022/09/27 01:52:23;;;;;;;7.78;3.53;;;21.10;99.90;;;;;;5016946;28;20717;-71
2022/09/27 01:54:56;;;;;;;3.10;1.80;;;21.10;99.90;;;;;;5016999;28;20045;-71
2022/09/27 01:58:03;;;;;;;8.43;2.60;;;21.10;99.90;;;;;;5035105;28;20105;-72
2022/09/27 02:00:32;;;;;;;6.95;2.80;;;21.10;99.90;;;;;;5015906;28;20049;-72
2022/09/27 02:03:11;;;;;;;6.18;2.60;;;21.10;99.90;;;;;;5000899;28;20115;-72
2022/09/27 02:05:45;;;;;;;4.25;1.92;;;21.10;99.90;;;;;;5034942;28;20048;-72
2022/09/27 02:08:52;;;;;;;5.50;2.55;;;21.10;99.90;;;;;;5004011;28;20034;-72
2022/09/27 02:11:34;;;;;;;7.07;2.97;;;21.10;99.90;;;;;;5033404;28;20089;-73
2022/09/27 02:14:26;;;;;;;5.88;2.38;;;21.00;99.90;;;;;;5002046;28;20060;-72
2022/09/27 02:17:13;;;;;;;6.60;2.40;;;21.00;99.90;;;;;;5017678;28;20053;-72
2022/09/27 02:20:11;;;;;;;6.82;2.50;;;21.00;99.90;;;;;;5016574;28;20055;-72
2022/09/27 02:22:49;;;;;;;4.72;2.40;;;21.00;99.90;;;;;;5015845;28;20140;-79
2022/09/27 02:25:16;;;;;;;4.78;2.55;;;21.10;99.90;;;;;;5037110;28;20056;-72
2022/09/27 02:27:51;;;;;;;6.43;2.25;;;21.10;99.90;;;;;;5016802;28;20045;-72
2022/09/27 02:30:20;;;;;;;6.22;2.35;;;21.00;99.90;;;;;;5000801;28;20492;-71
2022/09/27 02:32:54;;;;;;;9.27;2.35;;;21.00;99.90;;;;;;5016299;28;20053;-72
2022/09/27 02:35:30;;;;;;;6.97;2.42;;;21.00;99.90;;;;;;5016467;28;20053;-72
2022/09/27 02:37:58;;;;;;;10.20;3.93;;;21.00;99.90;;;;;;5015894;28;20049;-72
2022/09/27 02:40:32;;;;;;;6.22;2.13;;;21.00;99.90;;;;;;5015429;28;20492;-72
2022/09/27 02:43:03;;;;;;;5.82;2.33;;;21.00;99.90;;;;;;5015259;28;20049;-72
2022/09/27 02:45:48;;;;;;;5.95;2.40;;;21.00;99.90;;;;;;5031731;28;20496;-71
2022/09/27 02:48:24;;;;;;;14.33;5.00;;;21.00;99.90;;;;;;5015870;28;20238;-72
2022/09/27 02:50:51;;;;;;;6.63;2.65;;;20.90;99.90;;;;;;5033541;28;20072;-72
2022/09/27 02:53:40;;;;;;;6.45;2.90;;;20.90;99.90;;;;;;5030791;28;20762;-76
2022/09/27 02:57:00;;;;;;;7.45;2.83;;;20.90;99.90;;;;;;5018065;28;20053;-73
2022/09/27 03:00:06;;;;;;;8.93;3.40;;;20.90;99.90;;;;;;5018647;28;20639;-73
2022/09/27 03:03:18;;;;;;;5.35;2.20;;;20.90;99.90;;;;;;5037202;28;20107;-72
2022/09/27 03:06:06;;;;;;;7.43;2.22;;;20.90;99.90;;;;;;5036319;28;20648;-73
2022/09/27 03:08:35;;;;;;;6.53;2.25;;;20.80;99.90;;;;;;5035350;28;20076;-72
2022/09/27 03:11:03;;;;;;;7.30;2.70;;;20.60;99.90;;;;;;5035298;28;20045;-72
2022/09/27 03:13:33;;;;;;;9.52;2.53;;;20.60;99.90;;;;;;5037955;28;20061;-73
2022/09/27 03:16:08;;;;;;;6.88;2.00;;;20.60;99.90;;;;;;5055614;28;20045;-75
2022/09/27 03:18:49;;;;;;;6.35;2.50;;;20.50;99.90;;;;;;5039200;28;20490;-72
2022/09/27 03:21:43;;;;;;;5.53;2.17;;;20.40;99.90;;;;;;5024414;28;20071;-72
2022/09/27 03:24:10;;;;;;;4.22;2.35;;;20.50;99.90;;;;;;5038984;28;20045;-72
2022/09/27 03:26:38;;;;;;;4.57;2.50;;;20.50;99.90;;;;;;5055188;28;20116;-74
2022/09/27 03:29:05;;;;;;;7.70;1.83;;;20.50;99.90;;;;;;5038273;28;20086;-75
2022/09/27 03:31:33;;;;;;;4.97;2.55;;;20.60;99.90;;;;;;5038988;28;20044;-71
2022/09/27 03:34:34;;;;;;;5.53;2.75;;;20.60;99.90;;;;;;5055204;28;20044;-72
2022/09/27 03:37:01;;;;;;;6.10;2.00;;;20.50;99.90;;;;;;5071932;28;20071;-73
2022/09/27 03:39:29;;;;;;;5.60;1.98;;;20.50;99.90;;;;;;5037280;28;20044;-72
2022/09/27 03:41:56;;;;;;;9.55;2.83;;;20.50;99.90;;;;;;5037841;28;20438;-72
2022/09/27 03:44:24;;;;;;;5.95;2.60;;;20.40;99.90;;;;;;5054759;28;20048;-72
2022/09/27 03:46:52;;;;;;;3.30;1.77;;;20.40;99.90;;;;;;5037416;28;20098;-72
2022/09/27 03:49:19;;;;;;;5.75;2.58;;;20.40;99.90;;;;;;5054543;28;20066;-72
2022/09/27 03:51:47;;;;;;;5.45;2.97;;;20.40;99.90;;;;;;5038046;28;20079;-72
2022/09/27 03:54:14;;;;;;;5.93;2.22;;;20.40;99.90;;;;;;5055193;28;20049;-72
2022/09/27 03:56:42;;;;;;;6.53;1.92;;;20.40;99.90;;;;;;5037689;28;20068;-72
2022/09/27 03:59:10;;;;;;;6.68;2.08;;;20.40;99.90;;;;;;5021106;28;20053;-72
2022/09/27 04:01:57;;;;;;;3.67;2.15;;;20.40;99.90;;;;;;5071877;28;20102;-74
2022/09/27 04:04:45;;;;;;;2.40;1.48;;;20.40;99.90;;;;;;5072335;28;20044;-72
2022/09/27 04:07:12;;;;;;;5.20;2.33;;;20.40;99.90;;;;;;5037856;28;20093;-75
2022/09/27 04:09:41;;;;;;;4.00;2.40;;;20.40;99.90;;;;;;5053973;28;20582;-72
2022/09/27 04:12:11;;;;;;;4.57;2.17;;;20.40;99.90;;;;;;5031835;28;20102;-71
2022/09/27 04:14:39;;;;;;;6.05;1.83;;;20.30;99.90;;;;;;5051716;28;20136;-75
2022/09/27 04:17:29;;;;;;;10.18;2.55;;;20.30;99.90;;;;;;5037707;28;20040;-72
2022/09/27 04:20:17;;;;;;;6.25;2.72;;;20.30;99.90;;;;;;5051721;28;20434;-72
2022/09/27 04:22:45;;;;;;;6.55;2.13;;;20.30;99.90;;;;;;5017103;28;20532;-72
2022/09/27 04:25:13;;;;;;;6.32;2.40;;;20.30;99.90;;;;;;5018019;28;20491;-72
2022/09/27 04:27:44;;;;;;;8.07;1.77;;;20.30;99.90;;;;;;5034343;28;20037;-71
2022/09/27 04:30:14;;;;;;;6.95;2.00;;;20.20;99.90;;;;;;5017893;28;20053;-72
2022/09/27 04:33:10;;;;;;;6.05;2.15;;;20.20;99.90;;;;;;5021820;28;20172;-72
2022/09/27 04:39:03;;;;;;;3.83;2.03;;;20.30;99.90;;;;;;5017714;28;20797;-72
2022/09/27 04:41:35;;;;;;;;;;;20.30;99.90;;;;;;5002895;28;20049;-71
2022/09/27 04:44:05;;;;;;;5.93;2.28;;;20.30;99.90;;;;;;5033920;28;20304;-72
2022/09/27 04:46:33;;;;;;;4.38;2.63;;;20.30;99.90;;;;;;5001118;28;20139;-71
2022/09/27 04:49:02;;;;;;;7.82;2.88;;;20.30;99.90;;;;;;5033314;28;20066;-72
2022/09/27 04:51:32;;;;;;;6.53;2.25;;;20.30;99.90;;;;;;5001238;28;20041;-72
2022/09/27 04:54:00;;;;;;;8.68;2.20;;;20.30;99.90;;;;;;5033487;28;20049;-72
2022/09/27 04:56:32;;;;;;;10.27;2.72;;;20.40;99.90;;;;;;5033751;28;20047;-72
2022/09/27 04:59:00;;;;;;;6.70;2.38;;;20.40;99.90;;;;;;5036725;28;20049;-74
2022/09/27 05:01:29;;;;;;;8.98;2.95;;;20.50;99.90;;;;;;5053140;28;20126;-72
2022/09/27 05:04:13;;;;;;;5.35;2.25;;;20.50;99.90;;;;;;5036193;28;20055;-72
2022/09/27 05:06:45;;;;;;;7.78;3.08;;;20.50;99.90;;;;;;5036605;28;20060;-72
2022/09/27 05:09:18;;;;;;;9.35;2.92;;;20.60;99.90;;;;;;5052134;28;20047;-72
2022/09/27 05:11:51;;;;;;;4.85;2.38;;;20.60;99.90;;;;;;5036148;28;20049;-72
2022/09/27 05:14:31;;;;;;;4.75;1.80;;;20.70;99.90;;;;;;5053525;28;20060;-72
2022/09/27 05:17:28;;;;;;;7.25;2.30;;;20.70;99.90;;;;;;5051803;28;20510;-72
2022/09/27 05:20:03;;;;;;;8.57;2.38;;;20.70;99.90;;;;;;5054369;28;20072;-72
2022/09/27 05:22:41;;;;;;;8.38;2.50;;;20.80;99.90;;;;;;5038070;28;20706;-73
2022/09/27 05:25:09;;;;;;;6.68;2.65;;;20.80;99.90;;;;;;5036061;28;20347;-72
2022/09/27 05:27:38;;;;;;;10.68;2.88;;;20.70;99.90;;;;;;5035887;28;20526;-72
2022/09/27 05:30:06;;;;;;;5.53;2.50;;;20.80;99.90;;;;;;5035902;28;20036;-72
2022/09/27 05:32:48;;;;;;;6.53;2.28;;;20.80;99.90;;;;;;5033370;28;20825;-73
2022/09/27 05:35:34;;;;;;;5.85;2.08;;;20.80;99.90;;;;;;5069879;28;20185;-72
2022/09/27 05:38:03;;;;;;;5.47;3.17;;;20.90;99.90;;;;;;5052279;28;20040;-72
2022/09/27 05:40:34;;;;;;;4.90;2.53;;;20.90;99.90;;;;;;5035947;28;20091;-72
2022/09/27 05:43:07;;;;;;;5.38;2.60;;;20.90;99.90;;;;;;5052355;28;20086;-72
2022/09/27 05:45:35;;;;;;;6.70;2.50;;;20.90;99.90;;;;;;5036117;28;20106;-72
2022/09/27 05:48:04;;;;;;;11.00;3.83;;;21.00;99.90;;;;;;5019656;28;20045;-72
2022/09/27 05:50:37;;;;;;;6.88;2.00;;;21.00;99.90;;;;;;5037429;28;20479;-72
2022/09/27 05:53:05;;;;;;;8.57;3.72;;;21.10;99.90;;;;;;5051056;28;20040;-72
2022/09/27 05:55:32;;;;;;;6.90;2.60;;;21.30;99.90;;;;;;5052755;28;20040;-72
2022/09/27 05:58:03;;;;;;;10.13;2.58;;;21.40;99.90;;;;;;5035533;28;20090;-72
2022/09/27 06:00:51;;;;;;;6.00;2.55;;;21.70;99.90;;;;;;5051146;28;20123;-72
2022/09/27 06:03:39;;;;;;;6.13;2.40;;;22.00;99.90;;;;;;5067964;28;20138;-72
2022/09/27 06:06:25;;;;;;;8.00;2.83;;;22.50;99.90;;;;;;5054981;28;20367;-71
2022/09/27 06:08:56;;;;;;;6.18;2.63;;;22.90;99.90;;;;;;5019248;28;20151;-74
2022/09/27 06:11:29;;;;;;;5.00;2.20;;;23.20;99.90;;;;;;5070168;28;20086;-72
2022/09/27 06:13:56;;;;;;;5.70;2.17;;;23.60;99.90;;;;;;5035215;28;20446;-73
2022/09/27 06:16:25;;;;;;;7.35;2.30;;;23.90;99.90;;;;;;5052513;28;20052;-72
2022/09/27 06:18:53;;;;;;;8.90;2.20;;;24.30;99.90;;;;;;5034875;28;20048;-73
2022/09/27 06:21:21;;;;;;;6.13;1.80;;;24.50;99.90;;;;;;5036941;28;20052;-73
2022/09/27 06:23:55;;;;;;;4.30;1.90;;;24.70;99.90;;;;;;5073881;28;20139;-72
2022/09/27 06:26:29;;;;;;;9.80;2.42;;;24.90;99.90;;;;;;5023793;28;20052;-72
2022/09/27 06:29:26;;;;;;;6.38;1.83;;;25.00;99.90;;;;;;5037344;28;20445;-74
2022/09/27 06:32:00;;;;;;;4.55;2.10;;;24.90;99.90;;;;;;5056451;28;20468;-72
2022/09/27 06:34:36;;;;;;;5.10;1.92;;;24.90;99.90;;;;;;5039583;28;20059;-72
2022/09/27 06:37:04;;;;;;;9.52;2.53;;;24.90;99.90;;;;;;5022761;28;20087;-72
2022/09/27 06:39:33;;;;;;;7.95;2.55;;;24.80;99.90;;;;;;5039279;28;20064;-72
2022/09/27 06:42:21;;;;;;;7.93;2.88;;;24.90;99.90;;;;;;5054862;28;20474;-72
2022/09/27 06:45:11;;;;;;;7.72;2.47;;;24.80;99.90;;;;;;5026338;28;20045;-72
2022/09/27 06:48:17;;;;;;;9.85;3.03;;;24.90;99.90;;;;;;4983093;28;20185;-72
2022/09/27 06:50:54;;;;;;;8.57;2.60;;;24.80;99.90;;;;;;4987488;28;20055;-77
2022/09/27 06:53:22;;;;;;;11.23;2.75;;;24.80;99.90;;;;;;5000519;28;20147;-78
2022/09/27 06:55:51;;;;;;;5.28;2.00;;;24.90;99.90;;;;;;5035668;28;20376;-72
2022/09/27 07:01:28;;;;;;;4.78;1.63;;;25.00;99.90;;;;;;5053473;28;20491;-72
2022/09/27 07:04:24;;;;;;;8.05;3.22;;;25.10;99.90;;;;;;5053540;28;20049;-72
2022/09/27 07:07:12;;;;;;;6.68;2.22;;;25.40;99.90;;;;;;5034848;28;20118;-72
2022/09/27 07:09:49;;;;;;;6.30;2.22;;;25.60;99.90;;;;;;5035093;28;20471;-72
2022/09/27 07:12:16;;;;;;;6.95;2.70;;;25.70;99.90;;;;;;5003208;28;20059;-72
2022/09/27 07:14:44;;;;;;;6.78;1.98;;;25.70;99.90;;;;;;5048131;28;20057;-72
2022/09/27 07:17:14;;;;;;;4.78;1.98;;;25.70;99.90;;;;;;5031920;28;20049;-72
2022/09/27 07:19:43;;;;;;;6.05;1.95;;;25.70;99.90;;;;;;5032348;28;20618;-74
2022/09/27 07:22:12;;;;;;;5.38;1.70;;;25.90;99.90;;;;;;5016272;28;20045;-72
2022/09/27 07:24:42;;;;;;;3.58;1.90;;;26.00;99.90;;;;;;4999134;28;20052;-78
2022/09/27 07:27:11;;;;;;;5.95;2.08;;;26.10;99.90;;;;;;5015114;28;20041;-71
2022/09/27 07:29:38;;;;;;;5.72;2.10;;;26.10;99.90;;;;;;5031732;28;20151;-72
2022/09/27 07:32:06;;;;;;;8.27;1.92;;;26.10;99.90;;;;;;5030671;28;20051;-72
2022/09/27 07:34:34;;;;;;;13.07;3.25;;;26.10;99.90;;;;;;5014625;28;20135;-76
2022/09/27 07:37:04;;;;;;;3.42;1.73;;;26.40;99.90;;;;;;5028471;28;20038;-73
2022/09/27 07:39:36;;;;;;;4.68;1.67;;;26.30;99.90;;;;;;4998642;28;20053;-72
2022/09/27 07:42:05;;;;;;;4.97;1.95;;;26.60;99.90;;;;;;5014470;28;20041;-75
2022/09/27 07:44:35;;;;;;;4.70;1.75;;;26.80;99.90;;;;;;4998888;28;20041;-73
2022/09/27 07:47:37;;;;;;;10.18;2.63;;;26.80;99.90;;;;;;5024214;28;20132;-70
2022/09/27 07:50:15;;;;;;;11.23;3.58;;;26.80;99.90;;;;;;5031593;28;20049;-71
2022/09/27 07:52:52;;;;;;;4.03;1.58;;;26.60;99.90;;;;;;5013425;28;20037;-71
2022/09/27 07:55:41;;;;;;;5.47;2.25;;;26.50;99.90;;;;;;5030008;28;20045;-71
2022/09/27 07:58:17;;;;;;;3.00;1.67;;;26.50;99.90;;;;;;5030833;28;20037;-71
2022/09/27 08:00:44;;;;;;;5.38;1.33;;;26.70;99.90;;;;;;5029901;28;20065;-71
2022/09/27 08:03:14;;;;;;;6.78;1.65;;;26.60;99.90;;;;;;5013667;28;20045;-72
2022/09/27 08:05:46;;;;;;;7.38;2.35;;;26.70;99.90;;;;;;5026584;28;20083;-71
2022/09/27 08:08:15;;;;;;;4.97;1.48;;;26.60;99.90;;;;;;5020838;28;20052;-72
2022/09/27 08:10:45;;;;;;;5.63;1.60;;;26.90;99.90;;;;;;5029944;28;20136;-71
2022/09/27 08:13:18;;;;;;;6.60;1.83;;;27.00;99.90;;;;;;5030076;28;20051;-72
2022/09/27 08:15:47;;;;;;;3.92;2.03;;;27.00;99.90;;;;;;5046147;28;20198;-71
2022/09/27 08:18:16;;;;;;;4.78;1.80;;;27.00;99.90;;;;;;5046042;28;20146;-72
2022/09/27 08:20:56;;;;;;;5.63;2.05;;;27.00;99.90;;;;;;5044386;28;20588;-76
2022/09/27 08:23:30;;;;;;;6.10;1.85;;;27.10;99.90;;;;;;5029225;28;20583;-73
2022/09/27 08:26:15;;;;;;;5.38;1.95;;;27.00;99.90;;;;;;5048767;28;20037;-74
2022/09/27 08:28:55;;;;;;;7.75;2.63;;;26.70;99.90;;;;;;5020343;28;20037;-72
2022/09/27 08:31:25;;;;;;;8.68;2.40;;;26.60;99.90;;;;;;5048731;28;20057;-71
2022/09/27 08:33:55;;;;;;;10.57;2.42;;;26.50;99.90;;;;;;5008113;28;20053;-71
2022/09/27 08:36:23;;;;;;;5.45;1.98;;;26.40;99.90;;;;;;5045510;28;20057;-71
2022/09/27 08:38:51;;;;;;;2.92;1.48;;;26.50;99.90;;;;;;5013206;28;20495;-71
2022/09/27 08:41:33;;;;;;;5.00;1.63;;;26.60;99.90;;;;;;5031674;28;20037;-71
2022/09/27 08:44:30;;;;;;;6.50;1.70;;;27.00;99.90;;;;;;5048571;28;20478;-72
2022/09/27 08:47:13;;;;;;;5.18;1.33;;;27.20;99.90;;;;;;5033736;28;20040;-72
2022/09/27 08:50:11;;;;;;;3.97;2.05;;;27.10;99.90;;;;;;5016984;28;20056;-70
2022/09/27 08:52:44;;;;;;;9.73;2.50;;;27.00;99.90;;;;;;5041617;28;20107;-79
2022/09/27 08:55:42;;;;;;;3.13;2.33;;;27.00;99.90;;;;;;5017619;28;20056;-73
2022/09/27 08:58:38;;;;;;;2.80;1.40;;;26.70;99.90;;;;;;5050672;28;20037;-73
2022/09/27 09:01:15;;;;;;;5.60;2.30;;;26.40;99.90;;;;;;5017898;28;20143;-73
2022/09/27 09:03:56;;;;;;;15.80;2.28;;;26.30;99.90;;;;;;5018498;28;20055;-73
2022/09/27 09:06:36;;;;;;;3.83;1.52;;;26.30;99.90;;;;;;5017049;28;20051;-73
2022/09/27 09:09:31;;;;;;;5.38;2.00;;;26.50;99.90;;;;;;5050070;28;20041;-76
2022/09/27 09:12:45;;;;;;;2.53;1.20;;;26.70;99.90;;;;;;5049125;28;20122;-73
2022/09/27 09:15:54;;;;;;;2.33;1.23;;;26.90;99.90;;;;;;5050199;28;20060;-73
2022/09/27 09:18:45;;;;;;;6.25;1.50;;;27.20;99.90;;;;;;5017949;28;20147;-77
2022/09/27 09:21:26;;;;;;;6.60;1.48;;;27.40;99.90;;;;;;5049777;28;20135;-73
2022/09/27 09:24:24;;;;;;;6.10;1.65;;;27.60;99.90;;;;;;5050121;28;20082;-73
2022/09/27 09:27:12;;;;;;;3.28;1.52;;;27.50;99.90;;;;;;5047911;28;20099;-73
2022/09/27 09:30:01;;;;;;;9.30;1.88;;;27.60;99.90;;;;;;5047760;28;20472;-76
2022/09/27 09:32:59;;;;;;;3.53;1.40;;;27.60;99.90;;;;;;5014598;28;20038;-73
2022/09/27 09:35:36;;;;;;;2.78;1.50;;;27.50;99.90;;;;;;5029541;28;20049;-79
2022/09/27 09:38:12;;;;;;;4.10;1.55;;;27.60;99.90;;;;;;5013435;28;20654;-73
2022/09/27 09:40:51;;;;;;;4.70;1.90;;;27.30;99.90;;;;;;5013555;28;20050;-73
2022/09/27 09:43:19;;;;;;;3.95;1.38;;;27.50;99.90;;;;;;5014025;28;20041;-73
2022/09/27 09:46:01;;;;;;;3.53;1.33;;;27.70;99.90;;;;;;5030167;28;20411;-73
2022/09/27 09:48:42;;;;;;;7.60;2.03;;;27.80;99.90;;;;;;5029855;28;20510;-76
2022/09/27 09:51:21;;;;;;;3.47;1.52;;;28.00;99.90;;;;;;5013424;28;20491;-73
2022/09/27 09:54:05;;;;;;;2.53;1.20;;;28.00;99.90;;;;;;5013800;28;20173;-72
2022/09/27 09:56:44;;;;;;;3.83;1.83;;;27.70;99.90;;;;;;5015517;28;20050;-74
2022/09/27 09:59:17;;;;;;;4.57;1.52;;;27.80;99.90;;;;;;5015752;28;20045;-82
2022/09/27 10:01:48;;;;;;;6.13;1.48;;;27.90;99.90;;;;;;5017239;28;20048;-71
2022/09/27 10:04:28;;;;;;;6.95;1.58;;;27.90;99.90;;;;;;5033426;28;20042;-71
2022/09/27 10:06:59;;;;;;;6.25;1.55;;;28.00;99.90;;;;;;5033252;28;20042;-70
2022/09/27 10:09:32;;;;;;;4.05;1.63;;;28.10;99.90;;;;;;5033638;28;20438;-71
2022/09/27 10:12:18;;;;;;;3.25;1.65;;;28.20;99.90;;;;;;5020068;28;20073;-71
2022/09/27 10:14:48;;;;;;;5.30;1.50;;;28.00;99.90;;;;;;5016855;28;20061;-71
2022/09/27 10:17:22;;;;;;;3.22;1.60;;;28.00;99.90;;;;;;5031797;28;20391;-71
2022/09/27 10:19:53;;;;;;;3.65;1.23;;;27.90;99.90;;;;;;5033334;28;20041;-71
2022/09/27 10:22:31;;;;;;;4.13;1.40;;;27.80;99.90;;;;;;5033829;28;20041;-71
2022/09/27 10:25:07;;;;;;;6.65;2.13;;;27.70;99.90;;;;;;5021008;28;20118;-70
2022/09/27 10:27:49;;;;;;;3.92;1.55;;;27.80;99.90;;;;;;5037298;28;20653;-71
2022/09/27 10:30:32;;;;;;;3.15;1.63;;;27.80;99.90;;;;;;5036711;28;20087;-71
2022/09/27 10:33:17;;;;;;;4.18;1.30;;;27.70;99.90;;;;;;5020832;28;20072;-71
2022/09/27 10:35:50;;;;;;;6.38;1.70;;;27.50;99.90;;;;;;5037167;28;20091;-71
2022/09/27 10:38:34;;;;;;;2.42;1.20;;;27.60;99.90;;;;;;5037100;28;20048;-73
2022/09/27 10:41:32;;;;;;;4.32;1.35;;;27.50;99.90;;;;;;5052674;28;20533;-72
2022/09/27 10:44:27;;;;;;;2.47;2.08;;;27.50;99.90;;;;;;5035500;28;20048;-71
2022/09/27 10:47:21;;;;;;;4.05;1.50;;;27.40;99.90;;;;;;5038176;28;20056;-71
2022/09/27 10:50:25;;;;;;;8.00;2.20;;;27.30;99.90;;;;;;5031379;28;20511;-71
2022/09/27 10:53:21;;;;;;;9.52;2.42;;;27.20;99.90;;;;;;5035671;28;20056;-71
2022/09/27 10:55:58;;;;;;;4.47;1.52;;;27.10;99.90;;;;;;5052356;28;20037;-70
2022/09/27 10:58:37;;;;;;;4.45;1.52;;;27.00;99.90;;;;;;5035363;28;20053;-72
2022/09/27 11:01:13;;;;;;;10.60;2.15;;;27.10;99.90;;;;;;5019374;28;20086;-71
2022/09/27 11:04:05;;;;;;;3.65;1.50;;;27.30;99.90;;;;;;5046907;28;20097;-72
2022/09/27 11:06:37;;;;;;;6.65;2.28;;;27.50;99.90;;;;;;5018359;28;20060;-71
2022/09/27 11:09:25;;;;;;;8.93;1.90;;;27.40;99.90;;;;;;5051983;28;20037;-71
2022/09/27 11:12:14;;;;;;;7.07;1.88;;;27.30;99.90;;;;;;5051994;28;20049;-75
2022/09/27 11:14:51;;;;;;;6.00;1.50;;;27.10;99.90;;;;;;5033041;28;20067;-84
2022/09/27 11:17:27;;;;;;;3.00;1.50;;;27.00;99.90;;;;;;5016247;28;20197;-71
2022/09/27 11:20:24;;;;;;;3.85;1.60;;;26.90;99.90;;;;;;5032514;28;20108;-71
2022/09/27 11:23:17;;;;;;;3.55;1.58;;;26.70;99.90;;;;;;5015914;28;20246;-71
2022/09/27 11:26:33;;;;;;;3.42;1.80;;;26.70;99.90;;;;;;5016212;28;20136;-71
2022/09/27 11:29:39;;;;;;;3.40;1.85;;;26.60;99.90;;;;;;5011080;28;20145;-71
2022/09/27 11:32:36;;;;;;;4.43;1.50;;;26.70;99.90;;;;;;4991058;28;20124;-75
2022/09/27 11:35:17;;;;;;;9.55;1.83;;;26.70;99.90;;;;;;5031340;28;20052;-71
2022/09/27 11:37:58;;;;;;;3.17;1.38;;;26.80;99.90;;;;;;5022469;28;20053;-71
2022/09/27 11:40:46;;;;;;;3.47;1.70;;;26.90;99.90;;;;;;5004714;28;20410;-71
2022/09/27 11:43:54;;;;;;;3.50;1.38;;;26.80;99.90;;;;;;5047833;28;20057;-73
2022/09/27 11:46:32;;;;;;;2.22;1.30;;;27.00;99.00;;;;;;5012322;28;20083;-73
2022/09/27 11:49:10;;;;;;;3.10;1.40;;;27.00;98.90;;;;;;5039058;28;20052;-73
2022/09/27 11:52:06;;;;;;;3.83;1.45;;;27.00;98.90;;;;;;5051414;28;20041;-73
2022/09/27 11:54:43;;;;;;;4.32;1.40;;;26.80;99.50;;;;;;5050477;28;20391;-73
2022/09/27 11:57:25;;;;;;;3.10;1.30;;;26.60;99.70;;;;;;5035174;28;20049;-73
2022/09/27 12:00:08;;;;;;;4.15;1.60;;;26.50;99.90;;;;;;5035050;28;20076;-72
2022/09/27 12:02:55;;;;;;;4.93;1.98;;;26.60;99.90;;;;;;5046903;28;20100;-74
2022/09/27 12:05:35;;;;;;;9.68;2.22;;;26.80;99.90;;;;;;5051065;28;20044;-73
2022/09/27 12:08:26;;;;;;;3.38;1.73;;;26.80;99.90;;;;;;5030601;28;20462;-73
2022/09/27 12:11:22;;;;;;;8.50;2.60;;;26.70;99.80;;;;;;5026409;28;20048;-77
2022/09/27 12:14:17;;;;;;;4.68;1.65;;;26.70;99.90;;;;;;5027157;28;20171;-74
2022/09/27 12:16:49;;;;;;;5.32;2.25;;;26.70;99.90;;;;;;5041172;28;20344;-74
2022/09/27 12:19:23;;;;;;;4.45;1.92;;;26.80;99.90;;;;;;5027827;28;20053;-74
2022/09/27 12:22:03;;;;;;;9.68;1.88;;;26.90;99.90;;;;;;5019995;28;20356;-73
2022/09/27 12:24:34;;;;;;;6.80;2.72;;;26.90;99.90;;;;;;5044412;28;20082;-73
2022/09/27 12:27:41;;;;;;;6.78;2.53;;;26.80;99.90;;;;;;5037510;28;20384;-74
2022/09/27 12:30:15;;;;;;;4.45;2.13;;;26.50;99.90;;;;;;5035334;28;20122;-74
2022/09/27 12:33:10;;;;;;;2.17;1.20;;;26.50;99.90;;;;;;5043620;28;20128;-73
2022/09/27 12:35:50;;;;;;;5.53;1.63;;;26.50;99.90;;;;;;5017523;28;20041;-73
2022/09/27 12:38:43;;;;;;;2.95;2.05;;;26.50;98.40;;;;;;5044981;28;20049;-71
2022/09/27 12:41:18;;;;;;;5.18;2.53;;;26.60;98.90;;;;;;5015669;28;20438;-71
2022/09/27 12:44:12;;;;;;;3.38;1.58;;;26.70;98.90;;;;;;5048072;28;20060;-71
2022/09/27 12:46:53;;;;;;;3.47;1.75;;;26.70;98.10;;;;;;5035287;28;20548;-71
2022/09/27 12:49:42;;;;;;;4.05;1.50;;;26.70;97.20;;;;;;5030145;28;20895;-73
2022/09/27 12:52:21;;;;;;;3.17;1.35;;;26.70;97.10;;;;;;5033068;28;20045;-71
2022/09/27 12:54:59;;;;;;;3.03;1.42;;;26.70;97.50;;;;;;5052802;28;20136;-71
2022/09/27 12:58:21;;;;;;;2.35;1.40;;;26.60;97.20;;;;;;5047136;28;20040;-71
2022/09/27 13:01:24;;;;;;;3.53;1.60;;;26.60;97.70;;;;;;5024493;28;20107;-72
2022/09/27 13:03:55;;;;;;;2.08;1.17;;;26.50;98.10;;;;;;5042646;28;20041;-71
2022/09/27 13:06:50;;;;;;;3.75;1.38;;;26.50;98.30;;;;;;5050015;28;20049;-74
2022/09/27 13:09:39;;;;;;;2.37;1.50;;;26.50;98.50;;;;;;5032599;28;20782;-71
2022/09/27 13:12:13;;;;;;;3.03;1.33;;;26.50;98.60;;;;;;5022073;28;20388;-71
2022/09/27 13:15:16;;;;;;;2.78;1.70;;;26.50;98.80;;;;;;5028490;28;20058;-72
2022/09/27 13:17:43;;;;;;;3.00;1.58;;;26.50;99.00;;;;;;5044810;28;20442;-71
2022/09/27 13:20:35;;;;;;;3.17;1.73;;;26.30;99.00;;;;;;5023162;28;20475;-71
2022/09/27 13:23:21;;;;;;;4.80;1.65;;;26.20;98.70;;;;;;5049942;28;20052;-72
2022/09/27 13:25:55;;;;;;;1.92;1.38;;;26.10;98.70;;;;;;5030845;28;20132;-73
2022/09/27 13:28:49;;;;;;;3.60;1.50;;;26.10;99.10;;;;;;5045726;28;20422;-73
2022/09/27 13:31:52;;;;;;;4.93;1.90;;;26.10;99.20;;;;;;5036804;28;20057;-73
2022/09/27 13:34:42;;;;;;;3.72;1.70;;;26.10;98.60;;;;;;5041646;28;20076;-77
2022/09/27 13:37:38;;;;;;;7.32;1.90;;;26.20;98.60;;;;;;5033489;28;20136;-73
2022/09/27 13:40:23;;;;;;;2.40;1.55;;;26.20;97.90;;;;;;5033747;28;20049;-73
2022/09/27 13:43:08;;;;;;;2.08;1.40;;;26.30;98.00;;;;;;5053915;28;20095;-73
2022/09/27 13:45:58;;;;;;;3.92;1.42;;;26.30;97.50;;;;;;5034257;28;20060;-73
2022/09/27 13:48:35;;;;;;;;;;;26.20;96.90;;;;;;5047651;28;20044;-73
2022/09/27 13:51:18;;;;;;;3.15;1.30;;;26.10;96.40;;;;;;5037174;28;19921;-75
2022/09/27 13:54:04;;;;;;;3.85;1.33;;;26.00;96.10;;;;;;5053067;28;20052;-72
2022/09/27 13:56:39;;;;;;;4.18;2.17;;;25.80;96.00;;;;;;5040858;28;20041;-72